createdAt,value
2023-02-16T07:07:35.972Z,100031.13
2023-02-16T07:10:04.180Z,100028.94
2023-02-16T07:12:31.934Z,100032.41
2023-02-16T07:15:00.553Z,100043.31
2023-02-16T07:17:28.120Z,100046.25
2023-02-16T07:19:56.589Z,100052.81
2023-02-16T07:22:24.811Z,100051.44
2023-02-16T07:24:52.475Z,100050.84
2023-02-16T07:27:19.995Z,100055.41
2023-02-16T07:29:47.577Z,100052.03
2023-02-16T07:32:15.239Z,100054.00
2023-02-16T07:34:42.867Z,100052.91
2023-02-16T07:37:10.357Z,100055.31
2023-02-16T07:39:37.927Z,100049.19
2023-02-16T07:42:05.542Z,100051.97
2023-02-16T07:44:34.617Z,100052.63
2023-02-16T07:47:02.121Z,100047.19
2023-02-16T07:49:30.658Z,100054.38
2023-02-16T07:51:58.187Z,100053.13
2023-02-16T07:54:25.706Z,100044.41
2023-02-16T07:56:53.262Z,100044.53
2023-02-16T07:59:20.789Z,100050.25
2023-02-16T08:01:48.463Z,100046.13
2023-02-16T08:04:16.034Z,100057.78
2023-02-16T08:06:44.125Z,100055.47
2023-02-16T08:09:11.746Z,100060.06
2023-02-16T08:11:40.215Z,100049.00
2023-02-16T08:14:08.006Z,100056.75
2023-02-16T08:16:36.028Z,100061.78
2023-02-16T08:19:04.545Z,100068.88
2023-02-16T08:21:34.545Z,100068.09
2023-02-16T08:24:06.202Z,100064.22
2023-02-16T08:26:39.320Z,100065.28
2023-02-16T08:29:10.074Z,100056.69
2023-02-16T08:31:38.446Z,100071.88
2023-02-16T08:34:06.964Z,100068.31
2023-02-16T08:36:36.885Z,100066.44
2023-02-16T08:39:07.441Z,100065.50
2023-02-16T08:41:37.235Z,100063.84
2023-02-16T08:44:06.781Z,100057.56
2023-02-16T08:46:37.288Z,100062.50
2023-02-16T08:49:05.532Z,100064.09
2023-02-16T08:51:36.653Z,100058.41
2023-02-16T08:54:08.673Z,100062.63
2023-02-16T08:56:36.417Z,100049.34
2023-02-16T08:59:03.971Z,100065.56
2023-02-16T09:01:32.394Z,100065.34
2023-02-16T09:04:00.112Z,100055.78
2023-02-16T09:06:27.653Z,100062.97
2023-02-16T09:08:56.976Z,100053.97
2023-02-16T09:11:25.615Z,100062.81
2023-02-16T09:13:53.474Z,100058.81
2023-02-16T09:16:23.713Z,100063.78
2023-02-16T09:18:52.299Z,100056.19
2023-02-16T09:21:23.362Z,100059.66
2023-02-16T09:23:54.422Z,100048.28
2023-02-16T09:26:25.466Z,100055.09
2023-02-16T09:28:53.721Z,100056.13
2023-02-16T09:31:27.727Z,100061.38
2023-02-16T09:34:08.178Z,100066.34
2023-02-16T09:36:37.794Z,100060.28
2023-02-16T09:39:05.704Z,100063.03
2023-02-16T09:42:00.818Z,100052.59
2023-02-16T09:44:33.871Z,100053.91
2023-02-16T09:47:06.091Z,100049.63
2023-02-16T09:49:38.652Z,100055.97
2023-02-16T09:52:08.897Z,100052.91
2023-02-16T09:54:59.548Z,100053.00
2023-02-16T09:57:38.972Z,100053.19
2023-02-16T10:00:23.437Z,100044.09
2023-02-16T10:02:59.410Z,100048.38
2023-02-16T10:05:41.401Z,100049.00
2023-02-16T10:08:20.345Z,100050.31
2023-02-16T10:11:28.203Z,100051.38
2023-02-16T10:13:59.093Z,100055.81
2023-02-16T10:16:32.024Z,100047.78
2023-02-16T10:19:02.965Z,100050.16
2023-02-16T10:21:31.908Z,100048.53
2023-02-16T10:24:05.853Z,100036.22
2023-02-16T10:26:47.817Z,100037.19
2023-02-16T10:29:19.009Z,100042.66
2023-02-16T10:32:04.905Z,100049.31
2023-02-16T10:34:51.838Z,100044.97
2023-02-16T10:37:19.259Z,100029.44
2023-02-16T10:39:55.757Z,100039.84
2023-02-16T10:42:37.001Z,100026.25
2023-02-16T10:45:10.447Z,100029.16
2023-02-16T10:47:42.039Z,100020.16
2023-02-16T10:50:36.197Z,100016.56
2023-02-16T10:53:12.312Z,100009.16
2023-02-16T10:55:40.614Z,100012.16
2023-02-16T10:58:22.443Z,100016.41
2023-02-16T11:00:57.933Z,100016.72
2023-02-16T11:03:30.483Z,100010.81
2023-02-16T11:06:13.819Z,100004.56
2023-02-16T11:08:54.334Z,100014.56
2023-02-16T11:11:25.126Z,100000.97
2023-02-16T11:14:23.455Z,99997.78
2023-02-16T11:17:13.530Z,99997.78
2023-02-16T11:19:50.498Z,100000.25
2023-02-16T11:22:44.026Z,99995.09
2023-02-16T11:25:20.465Z,99986.16
2023-02-16T11:28:00.215Z,99984.16
2023-02-16T11:30:32.300Z,99986.19
2023-02-16T11:33:05.604Z,99977.59
2023-02-16T11:35:42.717Z,99977.44
2023-02-16T11:38:32.310Z,99973.94
2023-02-16T11:41:02.256Z,99983.06
2023-02-16T11:43:34.830Z,99976.28
2023-02-16T11:46:24.890Z,99980.72
2023-02-16T11:48:53.529Z,99961.63
2023-02-16T11:51:38.906Z,99974.09
2023-02-16T11:54:07.780Z,99975.34
2023-02-16T11:56:36.233Z,99958.66
2023-02-16T11:59:12.780Z,99960.28
2023-02-16T12:01:52.153Z,99953.28
2023-02-16T12:04:55.346Z,99953.38
2023-02-16T12:07:33.962Z,99946.59
2023-02-16T12:10:02.181Z,99938.38
2023-02-16T12:12:56.898Z,99929.81
2023-02-16T12:15:50.887Z,99934.97
2023-02-16T12:18:34.306Z,99929.97
2023-02-16T12:21:47.281Z,99929.56
2023-02-16T12:24:29.933Z,99918.81
2023-02-16T12:27:14.148Z,99922.72
2023-02-16T12:30:13.794Z,99912.03
2023-02-16T12:33:20.900Z,99916.50
2023-02-16T12:35:57.419Z,99916.34
2023-02-16T12:38:41.507Z,99916.69
2023-02-16T12:41:18.872Z,99910.38
2023-02-16T12:43:56.022Z,99905.41
2023-02-16T12:46:32.950Z,99903.91
2023-02-16T12:49:07.286Z,99898.69
2023-02-16T12:51:39.254Z,99895.06
2023-02-16T12:54:20.985Z,99896.16
2023-02-16T12:57:01.761Z,99891.81
2023-02-16T12:59:44.162Z,99885.34
2023-02-16T13:02:27.752Z,99877.03
2023-02-16T13:05:18.511Z,99881.16
2023-02-16T13:07:49.344Z,99866.91
2023-02-16T13:10:27.376Z,99864.94
2023-02-16T13:13:01.581Z,99865.72
2023-02-16T13:15:43.511Z,99860.63
2023-02-16T13:18:23.072Z,99865.16
2023-02-16T13:20:59.246Z,99864.13
2023-02-16T13:23:48.794Z,99860.59
2023-02-16T13:26:44.277Z,99842.78
2023-02-16T13:29:25.270Z,99842.50
2023-02-16T13:32:22.764Z,99840.47
2023-02-16T13:35:18.987Z,99847.97
2023-02-16T13:38:01.689Z,99839.34
2023-02-16T13:40:44.270Z,99830.13
2023-02-16T13:43:26.849Z,99834.03
2023-02-16T13:45:54.813Z,99837.97
2023-02-16T13:48:37.654Z,99841.53
2023-02-16T13:51:11.971Z,99833.41
2023-02-16T13:53:42.188Z,99831.00
2023-02-16T13:56:22.567Z,99837.25
2023-02-16T13:58:52.150Z,99828.56
2023-02-16T14:01:31.915Z,99821.00
2023-02-16T14:04:04.121Z,99821.25
2023-02-16T14:06:33.589Z,99824.66
2023-02-16T14:09:13.268Z,99818.03
2023-02-16T14:11:53.288Z,99821.63
2023-02-16T14:14:43.732Z,99823.72
2023-02-16T14:17:21.654Z,99817.91
2023-02-16T14:20:13.913Z,99825.13
2023-02-16T14:22:59.996Z,99820.88
2023-02-16T14:25:28.987Z,99823.56
2023-02-16T14:27:59.852Z,99819.28
2023-02-16T14:30:51.803Z,99815.22
2023-02-16T14:33:31.022Z,99816.53
2023-02-16T14:35:59.364Z,99814.66
2023-02-16T14:38:34.346Z,99818.38
2023-02-16T14:41:06.152Z,99811.75
2023-02-16T14:43:44.333Z,99805.69
2023-02-16T14:46:42.320Z,99817.22
2023-02-16T14:49:28.697Z,99811.94
2023-02-16T14:52:37.151Z,99811.75
2023-02-16T14:55:42.012Z,99806.69
2023-02-16T14:58:18.544Z,99812.47
2023-02-16T15:00:46.461Z,99803.94
2023-02-16T15:03:22.959Z,99806.88
2023-02-16T15:06:05.941Z,99802.34
2023-02-16T15:08:40.167Z,99802.72
2023-02-16T15:11:13.506Z,99804.81
2023-02-16T15:13:43.534Z,99805.53
2023-02-16T15:16:15.408Z,99802.84
2023-02-16T15:18:53.153Z,99805.41
2023-02-16T15:21:30.715Z,99800.53
2023-02-16T15:24:00.701Z,99793.47
2023-02-16T15:26:35.536Z,99804.53
2023-02-16T15:29:21.334Z,99799.09
2023-02-16T15:31:49.804Z,99800.53
2023-02-16T15:34:30.005Z,99797.47
2023-02-16T15:36:57.526Z,99805.09
2023-02-16T15:39:45.103Z,99799.97
2023-02-16T15:42:26.614Z,99804.59
2023-02-16T15:44:54.403Z,99805.59
2023-02-16T15:47:25.203Z,99801.06
2023-02-16T15:49:54.215Z,99805.13
2023-02-16T15:52:33.610Z,99802.94
2023-02-16T15:55:05.494Z,99800.09
2023-02-16T15:57:38.077Z,99793.75
2023-02-16T16:00:15.884Z,99802.97
2023-02-16T16:02:49.016Z,99800.53
2023-02-16T16:05:29.792Z,99801.56
2023-02-16T16:08:00.466Z,99792.91
2023-02-16T16:10:30.911Z,99788.88
2023-02-16T16:13:03.207Z,99793.38
2023-02-16T16:15:34.959Z,99787.22
2023-02-16T16:18:05.322Z,99790.91
2023-02-16T16:20:37.273Z,99784.50
2023-02-16T16:23:24.312Z,99796.09
2023-02-16T16:25:54.564Z,99795.34
2023-02-16T16:28:24.801Z,99801.06
2023-02-16T16:31:08.482Z,99793.47
2023-02-16T16:34:31.746Z,99799.16
2023-02-16T16:37:02.712Z,99799.31
2023-02-16T16:39:33.626Z,99804.31
2023-02-16T16:42:01.304Z,99808.72
2023-02-16T16:44:37.816Z,99807.84
2023-02-16T16:47:22.251Z,99807.41
2023-02-16T16:49:56.036Z,99809.31
2023-02-16T16:52:37.368Z,99815.53
2023-02-16T16:55:25.292Z,99817.19
2023-02-16T16:58:00.191Z,99812.66
2023-02-16T17:00:30.734Z,99807.91
2023-02-16T17:02:58.648Z,99803.34
2023-02-16T17:05:26.288Z,99809.22
2023-02-16T17:07:54.215Z,99810.72
2023-02-16T17:10:22.834Z,99808.94
2023-02-16T17:12:54.049Z,99804.59
2023-02-16T17:15:37.699Z,99802.09
2023-02-16T17:18:07.091Z,99807.81
2023-02-16T17:20:39.616Z,99797.63
2023-02-16T17:23:07.474Z,99816.69
2023-02-16T17:25:35.938Z,99815.53
2023-02-16T17:28:05.013Z,99799.63
2023-02-16T17:30:33.594Z,99802.88
2023-02-16T17:33:01.632Z,99805.09
2023-02-16T17:35:31.154Z,99804.91
2023-02-16T17:38:07.250Z,99800.69
2023-02-16T17:40:34.989Z,99801.06
2023-02-16T17:43:03.358Z,99797.69
2023-02-16T17:45:32.053Z,99800.84
2023-02-16T17:48:00.498Z,99800.66
2023-02-16T17:50:30.315Z,99790.31
2023-02-16T17:52:58.079Z,99800.47
2023-02-16T17:55:25.969Z,99792.25
2023-02-16T17:57:55.734Z,99798.81
2023-02-16T18:00:23.896Z,99788.69
2023-02-16T18:02:51.782Z,99790.63
2023-02-16T18:05:19.412Z,99796.06
2023-02-16T18:07:47.000Z,99802.69
2023-02-16T18:10:18.579Z,99807.16
2023-02-16T18:12:46.295Z,99812.25
2023-02-16T18:15:14.234Z,99811.28
2023-02-16T18:17:43.221Z,99811.50
2023-02-16T18:20:15.849Z,99812.28
2023-02-16T18:22:43.912Z,99808.25
2023-02-16T18:25:11.738Z,99811.91
2023-02-16T18:27:39.590Z,99816.00
2023-02-16T18:30:08.756Z,99815.13
2023-02-16T18:32:36.982Z,99817.66
2023-02-16T18:35:05.679Z,99812.38
2023-02-16T18:37:33.769Z,99811.84
2023-02-16T18:40:01.857Z,99822.66
2023-02-16T18:42:32.053Z,99811.69
2023-02-16T18:44:59.858Z,99812.50
2023-02-16T18:47:28.984Z,99812.53
2023-02-16T18:49:59.638Z,99810.19
2023-02-16T18:52:27.778Z,99811.00
2023-02-16T18:54:55.537Z,99809.97
2023-02-16T18:57:23.344Z,99817.34
2023-02-16T18:59:50.980Z,99822.69
2023-02-16T19:02:18.894Z,99824.41
2023-02-16T19:04:46.849Z,99837.16
2023-02-16T19:07:14.470Z,99830.38
2023-02-16T19:09:42.657Z,99823.16
2023-02-16T19:12:10.807Z,99823.28
2023-02-16T19:14:38.484Z,99812.72
2023-02-16T19:17:06.746Z,99818.06
2023-02-16T19:19:34.693Z,99818.78
2023-02-16T19:22:03.034Z,99815.94
2023-02-16T19:24:31.862Z,99823.00
2023-02-16T19:26:59.609Z,99819.31
2023-02-16T19:29:27.525Z,99821.06
2023-02-16T19:31:56.880Z,99814.91
2023-02-16T19:34:24.818Z,99820.50
2023-02-16T19:36:52.558Z,99815.94
2023-02-16T19:39:20.438Z,99814.97
2023-02-16T19:41:49.472Z,99818.78
2023-02-16T19:44:19.415Z,99814.66
2023-02-16T19:46:47.421Z,99820.38
2023-02-16T19:49:17.073Z,99827.66
2023-02-16T19:51:47.611Z,99822.34
2023-02-16T19:54:16.416Z,99825.69
2023-02-16T19:56:44.553Z,99824.25
2023-02-16T19:59:12.564Z,99823.50
2023-02-16T20:01:40.632Z,99821.06
2023-02-16T20:04:08.771Z,99822.22
2023-02-16T20:06:41.742Z,99829.78
2023-02-16T20:09:12.332Z,99822.34
2023-02-16T20:11:40.931Z,99826.09
2023-02-16T20:14:08.836Z,99825.22
2023-02-16T20:16:36.688Z,99828.09
2023-02-16T20:19:04.661Z,99821.25
2023-02-16T20:21:32.380Z,99823.91
2023-02-16T20:24:03.449Z,99816.44
2023-02-16T20:26:38.259Z,99815.56
2023-02-16T20:29:08.204Z,99819.84
2023-02-16T20:31:47.708Z,99818.63
2023-02-16T20:34:15.674Z,99824.44
2023-02-16T20:36:44.536Z,99823.09
2023-02-16T20:39:12.607Z,99818.03
2023-02-16T20:41:40.986Z,99824.22
2023-02-16T20:44:09.249Z,99820.72
2023-02-16T20:46:38.556Z,99818.81
2023-02-16T20:49:06.998Z,99816.63
2023-02-16T20:51:36.690Z,99813.16
2023-02-16T20:54:05.473Z,99821.13
2023-02-16T20:56:33.415Z,99817.25
2023-02-16T20:59:01.546Z,99823.91
2023-02-16T21:01:33.804Z,99821.63
2023-02-16T21:04:01.618Z,99824.22
2023-02-16T21:06:29.750Z,99815.31
2023-02-16T21:08:58.420Z,99805.34
2023-02-16T21:11:26.634Z,99811.69
2023-02-16T21:13:54.169Z,99812.31
2023-02-16T21:16:24.654Z,99817.66
2023-02-16T21:18:52.700Z,99811.69
2023-02-16T21:21:20.598Z,99816.13
2023-02-16T21:23:51.094Z,99819.88
2023-02-16T21:26:20.466Z,99823.75
2023-02-16T21:28:48.013Z,99814.03
2023-02-16T21:31:20.579Z,99812.19
2023-02-16T21:33:49.433Z,99808.81
2023-02-16T21:36:21.411Z,99823.34
2023-02-16T21:38:49.829Z,99809.25
2023-02-16T21:41:25.849Z,99815.59
2023-02-16T21:44:05.667Z,99809.97
2023-02-16T21:46:44.298Z,99806.09
2023-02-16T21:49:17.194Z,99804.44
2023-02-16T21:51:46.706Z,99810.28
2023-02-16T21:54:17.053Z,99805.75
2023-02-16T21:56:53.447Z,99804.94
2023-02-16T21:59:24.565Z,99798.63
2023-02-16T22:01:52.161Z,99796.91
2023-02-16T22:04:21.876Z,99801.03
2023-02-16T22:06:51.187Z,99801.38
2023-02-16T22:09:21.875Z,99793.78
2023-02-16T22:11:49.879Z,99790.22
2023-02-16T22:14:19.119Z,99788.88
2023-02-16T22:16:47.599Z,99786.41
2023-02-16T22:19:18.170Z,99794.09
2023-02-16T22:21:47.525Z,99790.66
2023-02-16T22:24:17.116Z,99795.81
2023-02-16T22:26:46.725Z,99795.06
2023-02-16T22:29:14.828Z,99791.94
2023-02-16T22:31:47.145Z,99788.25
2023-02-16T22:34:17.785Z,99795.44
2023-02-16T22:36:45.934Z,99789.31
2023-02-16T22:39:14.990Z,99782.13
2023-02-16T22:41:42.695Z,99788.50
2023-02-16T22:44:11.167Z,99783.34
2023-02-16T22:46:39.175Z,99782.66
2023-02-16T22:49:07.295Z,99784.66
2023-02-16T22:51:37.391Z,99779.84
2023-02-16T22:54:05.874Z,99769.63
2023-02-16T22:56:34.716Z,99770.53
2023-02-16T22:59:02.392Z,99771.75
2023-02-16T23:01:31.401Z,99775.28
2023-02-16T23:04:00.988Z,99788.94
2023-02-16T23:06:31.724Z,99776.94
2023-02-16T23:09:05.319Z,99777.09
2023-02-16T23:11:34.692Z,99768.53
2023-02-16T23:14:02.821Z,99773.28
2023-02-16T23:16:30.466Z,99768.59
2023-02-16T23:18:59.809Z,99772.00
2023-02-16T23:21:32.863Z,99773.69
2023-02-16T23:24:00.688Z,99772.50
2023-02-16T23:26:30.861Z,99774.75
2023-02-16T23:29:00.994Z,99768.94
2023-02-16T23:31:32.725Z,99755.47
2023-02-16T23:34:02.380Z,99756.97
2023-02-16T23:36:32.291Z,99763.63
2023-02-16T23:39:26.825Z,99765.25
2023-02-16T23:41:54.633Z,99766.53
2023-02-16T23:44:22.307Z,99770.44
2023-02-16T23:46:49.864Z,99770.00
2023-02-16T23:49:17.754Z,99761.34
2023-02-16T23:51:45.233Z,99755.47
2023-02-16T23:54:12.806Z,99762.25
2023-02-16T23:56:41.257Z,99766.53
2023-02-16T23:59:09.006Z,99762.22
